sensor_id;sensor_type;location;lat;lon;timestamp;temperature;humidity
32107;DHT22;18622;51.998;10.440;2023-07-24T03:31:07;20.40;99.90
32107;DHT22;18622;51.998;10.440;2023-07-24T03:33:35;20.40;99.90
32107;DHT22;18622;51.998;10.440;2023-07-24T03:36:03;20.40;99.90
32107;DHT22;18622;51.998;10.440;2023-07-24T03:38:31;20.40;99.90
32107;DHT22;18622;51.998;10.440;2023-07-24T03:40:58;20.40;99.90
32107;DHT22;18622;51.998;10.440;2023-07-24T03:43:26;20.40;99.90
32107;DHT22;18622;51.998;10.440;2023-07-24T03:45:54;20.40;99.90
32107;DHT22;18622;51.998;10.440;2023-07-24T03:48:22;20.40;99.90
32107;DHT22;18622;51.998;10.440;2023-07-24T03:50:57;20.40;99.90
32107;DHT22;18622;51.998;10.440;2023-07-24T03:53:20;20.50;99.90
32107;DHT22;18622;51.998;10.440;2023-07-24T03:55:47;20.50;99.90
32107;DHT22;18622;51.998;10.440;2023-07-24T03:58:15;20.50;99.90
32107;DHT22;18622;51.998;10.440;2023-07-24T04:00:43;20.50;99.90
32107;DHT22;18622;51.998;10.440;2023-07-24T04:03:11;20.50;99.90
32107;DHT22;18622;51.998;10.440;2023-07-24T04:05:38;20.50;99.90
32107;DHT22;18622;51.998;10.440;2023-07-24T04:08:06;20.40;99.90
32107;DHT22;18622;51.998;10.440;2023-07-24T04:10:34;20.40;99.90
32107;DHT22;18622;51.998;10.440;2023-07-24T04:13:02;20.30;99.90
32107;DHT22;18622;51.998;10.440;2023-07-24T04:15:30;20.30;99.90
32107;DHT22;18622;51.998;10.440;2023-07-24T04:17:57;20.30;99.90
32107;DHT22;18622;51.998;10.440;2023-07-24T04:20:25;20.30;99.90
32107;DHT22;18622;51.998;10.440;2023-07-24T04:22:53;20.30;99.90
32107;DHT22;18622;51.998;10.440;2023-07-24T04:25:21;20.30;99.90
32107;DHT22;18622;51.998;10.440;2023-07-24T04:27:49;20.30;99.90
32107;DHT22;18622;51.998;10.440;2023-07-24T04:30:16;20.40;99.90
32107;DHT22;18622;51.998;10.440;2023-07-24T04:32:44;20.50;99.90
32107;DHT22;18622;51.998;10.440;2023-07-24T04:35:12;20.50;99.90
32107;DHT22;18622;51.998;10.440;2023-07-24T04:37:40;20.50;99.90
32107;DHT22;18622;51.998;10.440;2023-07-24T04:40:08;20.50;99.90
32107;DHT22;18622;51.998;10.440;2023-07-24T04:42:36;20.50;99.90
32107;DHT22;18622;51.998;10.440;2023-07-24T04:45:05;20.50;99.90
32107;DHT22;18622;51.998;10.440;2023-07-24T04:47:32;20.50;99.90
32107;DHT22;18622;51.998;10.440;2023-07-24T04:50:00;20.50;99.90
32107;DHT22;18622;51.998;10.440;2023-07-24T04:52:28;20.60;99.90
32107;DHT22;18622;51.998;10.440;2023-07-24T04:54:56;20.70;99.90
32107;DHT22;18622;51.998;10.440;2023-07-24T04:57:24;20.70;99.90
32107;DHT22;18622;51.998;10.440;2023-07-24T04:59:51;20.70;99.90
32107;DHT22;18622;51.998;10.440;2023-07-24T05:02:19;20.80;99.90
32107;DHT22;18622;51.998;10.440;2023-07-24T05:04:47;20.80;99.90
32107;DHT22;18622;51.998;10.440;2023-07-24T05:07:15;20.90;99.90
32107;DHT22;18622;51.998;10.440;2023-07-24T05:09:43;20.90;99.90
32107;DHT22;18622;51.998;10.440;2023-07-24T05:12:10;21.00;99.90
32107;DHT22;18622;51.998;10.440;2023-07-24T05:14:38;21.20;99.90
32107;DHT22;18622;51.998;10.440;2023-07-24T05:17:06;21.40;99.90
32107;DHT22;18622;51.998;10.440;2023-07-24T05:19:34;21.60;99.90
32107;DHT22;18622;51.998;10.440;2023-07-24T05:22:02;22.00;99.50
32107;DHT22;18622;51.998;10.440;2023-07-24T05:24:29;22.20;98.90
32107;DHT22;18622;51.998;10.440;2023-07-24T05:26:57;22.30;98.50
32107;DHT22;18622;51.998;10.440;2023-07-24T05:29:25;22.40;98.20
32107;DHT22;18622;51.998;10.440;2023-07-24T05:31:53;22.40;98.20
32107;DHT22;18622;51.998;10.440;2023-07-24T05:34:21;22.40;98.10
32107;DHT22;18622;51.998;10.440;2023-07-24T05:36:48;22.40;97.80
32107;DHT22;18622;51.998;10.440;2023-07-24T05:39:16;22.50;97.80
32107;DHT22;18622;51.998;10.440;2023-07-24T05:41:44;22.50;97.80
32107;DHT22;18622;51.998;10.440;2023-07-24T05:44:12;22.50;97.60
32107;DHT22;18622;51.998;10.440;2023-07-24T05:46:39;22.50;97.50
32107;DHT22;18622;51.998;10.440;2023-07-24T05:49:07;22.50;97.60
32107;DHT22;18622;51.998;10.440;2023-07-24T05:51:35;22.60;97.30
32107;DHT22;18622;51.998;10.440;2023-07-24T05:54:03;22.60;97.40
32107;DHT22;18622;51.998;10.440;2023-07-24T05:56:31;22.60;97.10
32107;DHT22;18622;51.998;10.440;2023-07-24T05:58:58;22.60;97.10
32107;DHT22;18622;51.998;10.440;2023-07-24T06:01:26;22.60;97.10
32107;DHT22;18622;51.998;10.440;2023-07-24T06:03:54;22.70;97.00
32107;DHT22;18622;51.998;10.440;2023-07-24T06:06:22;22.80;96.70
32107;DHT22;18622;51.998;10.440;2023-07-24T06:08:50;22.80;96.60
32107;DHT22;18622;51.998;10.440;2023-07-24T06:11:17;22.90;96.60
32107;DHT22;18622;51.998;10.440;2023-07-24T06:13:45;22.90;96.40
32107;DHT22;18622;51.998;10.440;2023-07-24T06:16:13;22.90;96.30
32107;DHT22;18622;51.998;10.440;2023-07-24T06:18:41;22.90;96.10
32107;DHT22;18622;51.998;10.440;2023-07-24T06:21:09;22.90;96.10
32107;DHT22;18622;51.998;10.440;2023-07-24T06:23:37;22.90;96.10
32107;DHT22;18622;51.998;10.440;2023-07-24T06:26:04;22.90;96.10
32107;DHT22;18622;51.998;10.440;2023-07-24T06:28:32;22.90;96.10
32107;DHT22;18622;51.998;10.440;2023-07-24T06:31:00;23.10;95.90
32107;DHT22;18622;51.998;10.440;2023-07-24T06:33:28;23.30;95.70
32107;DHT22;18622;51.998;10.440;2023-07-24T06:35:56;23.50;95.40
32107;DHT22;18622;51.998;10.440;2023-07-24T06:38:24;23.60;95.20
32107;DHT22;18622;51.998;10.440;2023-07-24T06:40:52;23.80;94.80
32107;DHT22;18622;51.998;10.440;2023-07-24T06:43:19;23.90;94.50
32107;DHT22;18622;51.998;10.440;2023-07-24T06:45:47;24.00;94.40
32107;DHT22;18622;51.998;10.440;2023-07-24T06:48:15;24.20;94.30
32107;DHT22;18622;51.998;10.440;2023-07-24T06:50:43;24.40;93.80
32107;DHT22;18622;51.998;10.440;2023-07-24T06:53:10;24.70;94.00
32107;DHT22;18622;51.998;10.440;2023-07-24T06:55:38;24.90;93.40
32107;DHT22;18622;51.998;10.440;2023-07-24T06:58:06;25.00;93.00
32107;DHT22;18622;51.998;10.440;2023-07-24T07:00:34;25.30;92.50
32107;DHT22;18622;51.998;10.440;2023-07-24T07:03:02;25.30;92.10
32107;DHT22;18622;51.998;10.440;2023-07-24T07:05:31;25.50;92.20
32107;DHT22;18622;51.998;10.440;2023-07-24T07:07:59;25.70;91.70
32107;DHT22;18622;51.998;10.440;2023-07-24T07:10:27;25.80;90.90
32107;DHT22;18622;51.998;10.440;2023-07-24T07:12:55;25.90;91.20
32107;DHT22;18622;51.998;10.440;2023-07-24T07:15:23;25.90;90.50
32107;DHT22;18622;51.998;10.440;2023-07-24T07:17:50;25.90;90.20
32107;DHT22;18622;51.998;10.440;2023-07-24T07:20:18;25.90;90.20
32107;DHT22;18622;51.998;10.440;2023-07-24T07:22:46;26.00;90.10
32107;DHT22;18622;51.998;10.440;2023-07-24T07:25:14;26.10;89.90
32107;DHT22;18622;51.998;10.440;2023-07-24T07:27:42;25.90;90.10
32107;DHT22;18622;51.998;10.440;2023-07-24T07:30:10;25.80;89.80
32107;DHT22;18622;51.998;10.440;2023-07-24T07:32:38;25.70;90.20
32107;DHT22;18622;51.998;10.440;2023-07-24T07:35:06;25.80;90.60
32107;DHT22;18622;51.998;10.440;2023-07-24T07:37:34;25.80;89.60
32107;DHT22;18622;51.998;10.440;2023-07-24T07:40:02;25.80;89.70
32107;DHT22;18622;51.998;10.440;2023-07-24T07:42:30;25.90;90.20
32107;DHT22;18622;51.998;10.440;2023-07-24T07:44:57;26.00;89.80
32107;DHT22;18622;51.998;10.440;2023-07-24T07:47:25;26.00;87.70
32107;DHT22;18622;51.998;10.440;2023-07-24T07:49:53;26.00;86.60
32107;DHT22;18622;51.998;10.440;2023-07-24T07:52:21;26.00;85.00
32107;DHT22;18622;51.998;10.440;2023-07-24T07:54:49;25.90;83.30
32107;DHT22;18622;51.998;10.440;2023-07-24T07:57:17;25.90;83.50
32107;DHT22;18622;51.998;10.440;2023-07-24T07:59:45;25.80;83.20
32107;DHT22;18622;51.998;10.440;2023-07-24T08:02:12;25.90;83.40
32107;DHT22;18622;51.998;10.440;2023-07-24T08:04:40;26.00;82.40
32107;DHT22;18622;51.998;10.440;2023-07-24T08:07:08;25.80;81.30
32107;DHT22;18622;51.998;10.440;2023-07-24T08:09:36;25.80;81.90
32107;DHT22;18622;51.998;10.440;2023-07-24T08:12:04;25.80;81.90
32107;DHT22;18622;51.998;10.440;2023-07-24T08:17:10;25.80;79.60
32107;DHT22;18622;51.998;10.440;2023-07-24T08:19:38;25.90;80.40
32107;DHT22;18622;51.998;10.440;2023-07-24T08:22:06;26.00;81.00
32107;DHT22;18622;51.998;10.440;2023-07-24T08:24:34;26.00;80.30
32107;DHT22;18622;51.998;10.440;2023-07-24T08:27:02;26.20;80.90
32107;DHT22;18622;51.998;10.440;2023-07-24T08:29:30;26.30;80.70
32107;DHT22;18622;51.998;10.440;2023-07-24T08:31:58;26.50;79.10
32107;DHT22;18622;51.998;10.440;2023-07-24T08:34:26;26.50;80.00
32107;DHT22;18622;51.998;10.440;2023-07-24T08:36:53;26.70;79.70
32107;DHT22;18622;51.998;10.440;2023-07-24T08:39:21;27.00;79.20
32107;DHT22;18622;51.998;10.440;2023-07-24T08:41:49;27.30;77.90
32107;DHT22;18622;51.998;10.440;2023-07-24T08:44:18;27.70;78.20
32107;DHT22;18622;51.998;10.440;2023-07-24T08:46:46;28.00;75.20
32107;DHT22;18622;51.998;10.440;2023-07-24T08:49:16;28.20;74.00
32107;DHT22;18622;51.998;10.440;2023-07-24T08:51:44;28.40;73.00
32107;DHT22;18622;51.998;10.440;2023-07-24T08:54:12;28.50;73.70
32107;DHT22;18622;51.998;10.440;2023-07-24T08:56:39;28.70;71.50
32107;DHT22;18622;51.998;10.440;2023-07-24T08:59:08;28.90;70.60
32107;DHT22;18622;51.998;10.440;2023-07-24T09:01:36;29.00;71.70
32107;DHT22;18622;51.998;10.440;2023-07-24T09:04:04;28.90;69.40
32107;DHT22;18622;51.998;10.440;2023-07-24T09:06:31;28.30;70.60
32107;DHT22;18622;51.998;10.440;2023-07-24T09:08:59;26.80;80.60
32107;DHT22;18622;51.998;10.440;2023-07-24T09:11:27;24.70;89.00
32107;DHT22;18622;51.998;10.440;2023-07-24T09:13:55;23.30;92.70
32107;DHT22;18622;51.998;10.440;2023-07-24T09:16:24;22.30;95.60
32107;DHT22;18622;51.998;10.440;2023-07-24T09:18:53;21.70;97.40
32107;DHT22;18622;51.998;10.440;2023-07-24T09:21:29;21.40;99.60
32107;DHT22;18622;51.998;10.440;2023-07-24T09:24:08;21.50;99.90
32107;DHT22;18622;51.998;10.440;2023-07-24T09:26:27;21.80;99.90
32107;DHT22;18622;51.998;10.440;2023-07-24T09:28:55;22.10;99.90
32107;DHT22;18622;51.998;10.440;2023-07-24T09:31:33;22.60;99.90
32107;DHT22;18622;51.998;10.440;2023-07-24T09:33:53;23.00;99.90
32107;DHT22;18622;51.998;10.440;2023-07-24T09:36:21;23.40;99.80
32107;DHT22;18622;51.998;10.440;2023-07-24T09:38:49;23.80;99.90
32107;DHT22;18622;51.998;10.440;2023-07-24T09:41:27;24.20;99.70
32107;DHT22;18622;51.998;10.440;2023-07-24T09:44:01;24.60;99.60
32107;DHT22;18622;51.998;10.440;2023-07-24T09:46:22;25.00;98.40
32107;DHT22;18622;51.998;10.440;2023-07-24T09:48:49;25.40;97.80
32107;DHT22;18622;51.998;10.440;2023-07-24T09:51:18;25.70;97.90
32107;DHT22;18622;51.998;10.440;2023-07-24T09:53:58;26.10;97.80
32107;DHT22;18622;51.998;10.440;2023-07-24T09:56:26;26.50;96.80
32107;DHT22;18622;51.998;10.440;2023-07-24T09:58:55;26.90;95.90
32107;DHT22;18622;51.998;10.440;2023-07-24T10:01:24;27.20;95.00
32107;DHT22;18622;51.998;10.440;2023-07-24T10:03:52;27.40;94.00
32107;DHT22;18622;51.998;10.440;2023-07-24T10:06:21;27.80;94.80
32107;DHT22;18622;51.998;10.440;2023-07-24T10:08:49;28.20;93.90
32107;DHT22;18622;51.998;10.440;2023-07-24T10:11:18;28.40;91.50
32107;DHT22;18622;51.998;10.440;2023-07-24T10:13:46;28.50;91.80
32107;DHT22;18622;51.998;10.440;2023-07-24T10:16:14;28.70;90.90
32107;DHT22;18622;51.998;10.440;2023-07-24T10:18:44;29.00;91.70
32107;DHT22;18622;51.998;10.440;2023-07-24T10:21:13;29.40;90.80
32107;DHT22;18622;51.998;10.440;2023-07-24T10:23:42;29.70;88.40
32107;DHT22;18622;51.998;10.440;2023-07-24T10:26:10;29.60;88.60
32107;DHT22;18622;51.998;10.440;2023-07-24T10:28:40;29.30;86.90
32107;DHT22;18622;51.998;10.440;2023-07-24T10:31:19;29.10;87.10
32107;DHT22;18622;51.998;10.440;2023-07-24T10:33:47;28.90;87.30
32107;DHT22;18622;51.998;10.440;2023-07-24T10:36:17;28.70;85.50
32107;DHT22;18622;51.998;10.440;2023-07-24T10:38:47;28.70;86.00
32107;DHT22;18622;51.998;10.440;2023-07-24T10:41:16;29.10;87.00
32107;DHT22;18622;51.998;10.440;2023-07-24T10:43:46;29.70;82.50
32107;DHT22;18622;51.998;10.440;2023-07-24T10:46:16;30.20;80.70
32107;DHT22;18622;51.998;10.440;2023-07-24T10:48:46;30.60;78.80
32107;DHT22;18622;51.998;10.440;2023-07-24T10:51:14;31.00;78.10
32107;DHT22;18622;51.998;10.440;2023-07-24T10:53:45;31.40;74.80
32107;DHT22;18622;51.998;10.440;2023-07-24T10:56:13;31.90;74.10
32107;DHT22;18622;51.998;10.440;2023-07-24T10:58:42;32.40;73.30
32107;DHT22;18622;51.998;10.440;2023-07-24T11:01:10;32.90;69.30
32107;DHT22;18622;51.998;10.440;2023-07-24T11:03:39;33.30;67.50
32107;DHT22;18622;51.998;10.440;2023-07-24T11:06:19;33.30;65.80
32107;DHT22;18622;51.998;10.440;2023-07-24T11:08:53;33.80;65.80
32107;DHT22;18622;51.998;10.440;2023-07-24T11:11:28;33.90;63.00
32107;DHT22;18622;51.998;10.440;2023-07-24T11:13:55;33.10;63.50
32107;DHT22;18622;51.998;10.440;2023-07-24T11:16:23;32.20;65.70
32107;DHT22;18622;51.998;10.440;2023-07-24T11:18:51;31.50;66.40
32107;DHT22;18622;51.998;10.440;2023-07-24T11:21:19;31.00;67.70
32107;DHT22;18622;51.998;10.440;2023-07-24T11:26:21;30.80;70.30
32107;DHT22;18622;51.998;10.440;2023-07-24T11:28:50;30.90;69.00
32107;DHT22;18622;51.998;10.440;2023-07-24T11:31:18;31.10;68.80
32107;DHT22;18622;51.998;10.440;2023-07-24T11:33:50;31.10;68.50
32107;DHT22;18622;51.998;10.440;2023-07-24T11:36:19;31.20;70.60
32107;DHT22;18622;51.998;10.440;2023-07-24T11:38:47;31.90;69.20
32107;DHT22;18622;51.998;10.440;2023-07-24T11:41:17;33.20;64.90
32107;DHT22;18622;51.998;10.440;2023-07-24T11:43:48;34.20;61.80
32107;DHT22;18622;51.998;10.440;2023-07-24T11:46:27;34.20;60.10
32107;DHT22;18622;51.998;10.440;2023-07-24T11:48:55;33.70;59.60
32107;DHT22;18622;51.998;10.440;2023-07-24T11:51:27;33.00;60.10
32107;DHT22;18622;51.998;10.440;2023-07-24T11:54:09;32.40;57.30
32107;DHT22;18622;51.998;10.440;2023-07-24T11:56:38;31.70;58.50
32107;DHT22;18622;51.998;10.440;2023-07-24T11:59:14;31.00;59.60
32107;DHT22;18622;51.998;10.440;2023-07-24T12:01:46;30.70;60.60
32107;DHT22;18622;51.998;10.440;2023-07-24T12:04:15;30.30;60.20
32107;DHT22;18622;51.998;10.440;2023-07-24T12:06:43;30.00;60.10
32107;DHT22;18622;51.998;10.440;2023-07-24T12:09:12;29.80;60.20
32107;DHT22;18622;51.998;10.440;2023-07-24T12:11:43;29.70;61.30
32107;DHT22;18622;51.998;10.440;2023-07-24T12:14:13;29.90;60.80
32107;DHT22;18622;51.998;10.440;2023-07-24T12:16:41;30.00;60.00
32107;DHT22;18622;51.998;10.440;2023-07-24T12:19:09;30.30;60.30
32107;DHT22;18622;51.998;10.440;2023-07-24T12:21:37;31.00;58.90
32107;DHT22;18622;51.998;10.440;2023-07-24T12:24:05;31.40;58.40
32107;DHT22;18622;51.998;10.440;2023-07-24T12:26:33;31.50;58.50
32107;DHT22;18622;51.998;10.440;2023-07-24T12:29:01;31.60;57.30
32107;DHT22;18622;51.998;10.440;2023-07-24T12:31:29;31.50;56.90
32107;DHT22;18622;51.998;10.440;2023-07-24T12:33:56;31.50;57.60
32107;DHT22;18622;51.998;10.440;2023-07-24T12:36:24;31.60;58.50
32107;DHT22;18622;51.998;10.440;2023-07-24T12:38:52;32.10;58.20
32107;DHT22;18622;51.998;10.440;2023-07-24T12:41:20;32.70;55.90
32107;DHT22;18622;51.998;10.440;2023-07-24T12:43:48;32.80;55.60
32107;DHT22;18622;51.998;10.440;2023-07-24T12:46:16;32.60;55.50
32107;DHT22;18622;51.998;10.440;2023-07-24T12:48:44;32.80;56.80
32107;DHT22;18622;51.998;10.440;2023-07-24T12:51:12;33.30;55.00
32107;DHT22;18622;51.998;10.440;2023-07-24T12:53:39;33.90;53.80
32107;DHT22;18622;51.998;10.440;2023-07-24T12:56:07;34.50;52.80
32107;DHT22;18622;51.998;10.440;2023-07-24T12:58:35;35.00;51.30
32107;DHT22;18622;51.998;10.440;2023-07-24T13:01:03;34.80;53.10
32107;DHT22;18622;51.998;10.440;2023-07-24T13:03:30;34.50;51.00
32107;DHT22;18622;51.998;10.440;2023-07-24T13:05:58;33.90;50.60
32107;DHT22;18622;51.998;10.440;2023-07-24T13:08:27;33.30;51.70
32107;DHT22;18622;51.998;10.440;2023-07-24T13:10:55;32.80;53.10
32107;DHT22;18622;51.998;10.440;2023-07-24T13:13:22;32.60;54.10
32107;DHT22;18622;51.998;10.440;2023-07-24T13:15:50;32.70;54.50
32107;DHT22;18622;51.998;10.440;2023-07-24T13:18:18;33.00;54.50
32107;DHT22;18622;51.998;10.440;2023-07-24T13:20:46;33.70;52.50
32107;DHT22;18622;51.998;10.440;2023-07-24T13:23:14;34.10;49.40
32107;DHT22;18622;51.998;10.440;2023-07-24T13:25:42;33.70;50.40
32107;DHT22;18622;51.998;10.440;2023-07-24T13:28:10;33.10;51.40
32107;DHT22;18622;51.998;10.440;2023-07-24T13:30:38;32.40;51.50
32107;DHT22;18622;51.998;10.440;2023-07-24T13:33:05;32.10;49.60
32107;DHT22;18622;51.998;10.440;2023-07-24T13:35:33;31.90;51.00
32107;DHT22;18622;51.998;10.440;2023-07-24T13:38:01;31.60;52.10
32107;DHT22;18622;51.998;10.440;2023-07-24T13:40:29;31.50;51.70
32107;DHT22;18622;51.998;10.440;2023-07-24T13:42:57;31.60;52.40
32107;DHT22;18622;51.998;10.440;2023-07-24T13:45:25;31.50;52.20
32107;DHT22;18622;51.998;10.440;2023-07-24T13:47:52;31.40;51.40
32107;DHT22;18622;51.998;10.440;2023-07-24T13:50:20;30.90;52.40
32107;DHT22;18622;51.998;10.440;2023-07-24T13:52:48;30.40;52.80
32107;DHT22;18622;51.998;10.440;2023-07-24T13:55:16;30.00;53.30
32107;DHT22;18622;51.998;10.440;2023-07-24T13:57:44;29.90;55.40
32107;DHT22;18622;51.998;10.440;2023-07-24T14:00:12;30.00;57.60
32107;DHT22;18622;51.998;10.440;2023-07-24T14:02:40;31.20;56.40
32107;DHT22;18622;51.998;10.440;2023-07-24T14:05:08;32.50;55.10
32107;DHT22;18622;51.998;10.440;2023-07-24T14:07:36;34.00;54.20
32107;DHT22;18622;51.998;10.440;2023-07-24T14:10:04;34.90;52.00
32107;DHT22;18622;51.998;10.440;2023-07-24T14:12:32;35.20;49.10
32107;DHT22;18622;51.998;10.440;2023-07-24T14:14:59;35.50;49.50
32107;DHT22;18622;51.998;10.440;2023-07-24T14:17:27;35.90;49.70
32107;DHT22;18622;51.998;10.440;2023-07-24T14:19:55;36.00;49.20
32107;DHT22;18622;51.998;10.440;2023-07-24T14:22:23;35.80;49.80
32107;DHT22;18622;51.998;10.440;2023-07-24T14:24:51;35.80;49.80
32107;DHT22;18622;51.998;10.440;2023-07-24T14:27:19;35.80;48.70
32107;DHT22;18622;51.998;10.440;2023-07-24T14:29:46;35.50;49.40
32107;DHT22;18622;51.998;10.440;2023-07-24T14:32:14;34.90;48.70
32107;DHT22;18622;51.998;10.440;2023-07-24T14:34:42;34.50;49.70
32107;DHT22;18622;51.998;10.440;2023-07-24T14:37:10;34.70;48.80
32107;DHT22;18622;51.998;10.440;2023-07-24T14:39:38;34.80;49.60
32107;DHT22;18622;51.998;10.440;2023-07-24T14:42:06;34.60;49.70
32107;DHT22;18622;51.998;10.440;2023-07-24T14:44:33;34.10;48.80
32107;DHT22;18622;51.998;10.440;2023-07-24T14:47:01;33.40;49.80
32107;DHT22;18622;51.998;10.440;2023-07-24T14:49:29;32.70;51.10
32107;DHT22;18622;51.998;10.440;2023-07-24T14:51:57;32.00;53.20
32107;DHT22;18622;51.998;10.440;2023-07-24T14:54:25;31.40;53.70
32107;DHT22;18622;51.998;10.440;2023-07-24T14:56:52;30.70;56.10
32107;DHT22;18622;51.998;10.440;2023-07-24T14:59:21;30.10;58.90
32107;DHT22;18622;51.998;10.440;2023-07-24T15:01:49;29.50;62.30
32107;DHT22;18622;51.998;10.440;2023-07-24T15:04:17;28.20;68.40
32107;DHT22;18622;51.998;10.440;2023-07-24T15:06:45;26.60;74.20
32107;DHT22;18622;51.998;10.440;2023-07-24T15:09:12;25.20;79.50
32107;DHT22;18622;51.998;10.440;2023-07-24T15:11:40;23.90;84.60
32107;DHT22;18622;51.998;10.440;2023-07-24T15:14:08;22.90;90.90
32107;DHT22;18622;51.998;10.440;2023-07-24T15:16:36;21.90;92.00
32107;DHT22;18622;51.998;10.440;2023-07-24T15:19:04;21.00;94.50
32107;DHT22;18622;51.998;10.440;2023-07-24T15:21:31;20.30;97.10
32107;DHT22;18622;51.998;10.440;2023-07-24T15:23:59;19.60;98.10
32107;DHT22;18622;51.998;10.440;2023-07-24T15:26:27;18.90;99.90
32107;DHT22;18622;51.998;10.440;2023-07-24T15:28:55;18.40;99.90
32107;DHT22;18622;51.998;10.440;2023-07-24T15:31:23;18.20;99.90
32107;DHT22;18622;51.998;10.440;2023-07-24T15:33:50;18.00;99.90
32107;DHT22;18622;51.998;10.440;2023-07-24T15:36:18;18.00;99.90
32107;DHT22;18622;51.998;10.440;2023-07-24T15:38:46;18.00;99.90
32107;DHT22;18622;51.998;10.440;2023-07-24T15:41:14;18.10;99.90
32107;DHT22;18622;51.998;10.440;2023-07-24T15:43:41;18.10;99.90
32107;DHT22;18622;51.998;10.440;2023-07-24T15:46:09;18.20;99.90
32107;DHT22;18622;51.998;10.440;2023-07-24T15:48:37;18.20;99.90
32107;DHT22;18622;51.998;10.440;2023-07-24T15:51:05;18.30;99.90
32107;DHT22;18622;51.998;10.440;2023-07-24T15:53:33;18.30;99.90
32107;DHT22;18622;51.998;10.440;2023-07-24T15:56:00;18.40;99.90
32107;DHT22;18622;51.998;10.440;2023-07-24T15:58:28;18.40;99.90
32107;DHT22;18622;51.998;10.440;2023-07-24T16:00:56;18.50;99.90
32107;DHT22;18622;51.998;10.440;2023-07-24T16:03:24;18.50;99.90
32107;DHT22;18622;51.998;10.440;2023-07-24T16:05:54;18.40;99.90
32107;DHT22;18622;51.998;10.440;2023-07-24T16:08:21;18.40;99.90
32107;DHT22;18622;51.998;10.440;2023-07-24T16:10:49;18.30;99.90
32107;DHT22;18622;51.998;10.440;2023-07-24T16:13:17;18.30;99.90
32107;DHT22;18622;51.998;10.440;2023-07-24T16:15:45;18.30;99.90
32107;DHT22;18622;51.998;10.440;2023-07-24T16:18:13;18.20;99.90
32107;DHT22;18622;51.998;10.440;2023-07-24T16:20:40;18.30;99.90
32107;DHT22;18622;51.998;10.440;2023-07-24T16:23:08;19.00;99.90
32107;DHT22;18622;51.998;10.440;2023-07-24T16:25:36;20.60;99.90
32107;DHT22;18622;51.998;10.440;2023-07-24T16:28:04;22.40;99.90
32107;DHT22;18622;51.998;10.440;2023-07-24T16:30:32;23.30;99.90
32107;DHT22;18622;51.998;10.440;2023-07-24T16:33:00;24.00;99.90
32107;DHT22;18622;51.998;10.440;2023-07-24T16:35:27;25.10;99.90
32107;DHT22;18622;51.998;10.440;2023-07-24T16:37:55;26.10;99.90
32107;DHT22;18622;51.998;10.440;2023-07-24T16:40:23;27.40;99.20
32107;DHT22;18622;51.998;10.440;2023-07-24T16:42:51;28.30;96.90
32107;DHT22;18622;51.998;10.440;2023-07-24T16:45:19;29.00;95.30
32107;DHT22;18622;51.998;10.440;2023-07-24T16:47:47;29.40;93.20
32107;DHT22;18622;51.998;10.440;2023-07-24T16:50:15;29.80;91.30
32107;DHT22;18622;51.998;10.440;2023-07-24T16:52:42;29.80;89.80
32107;DHT22;18622;51.998;10.440;2023-07-24T16:55:10;29.90;87.10
32107;DHT22;18622;51.998;10.440;2023-07-24T16:57:38;29.90;88.50
32107;DHT22;18622;51.998;10.440;2023-07-24T17:00:06;30.20;87.30
32107;DHT22;18622;51.998;10.440;2023-07-24T17:02:34;30.20;84.20
32107;DHT22;18622;51.998;10.440;2023-07-24T17:05:04;29.90;85.00
32107;DHT22;18622;51.998;10.440;2023-07-24T17:07:32;29.60;81.40
32107;DHT22;18622;51.998;10.440;2023-07-24T17:09:59;28.40;81.00
32107;DHT22;18622;51.998;10.440;2023-07-24T17:12:27;27.00;83.60
32107;DHT22;18622;51.998;10.440;2023-07-24T17:14:55;25.70;87.80
32107;DHT22;18622;51.998;10.440;2023-07-24T17:17:23;24.70;90.50
32107;DHT22;18622;51.998;10.440;2023-07-24T17:19:51;23.90;92.10
32107;DHT22;18622;51.998;10.440;2023-07-24T17:22:18;23.30;93.30
32107;DHT22;18622;51.998;10.440;2023-07-24T17:24:46;23.00;94.90
32107;DHT22;18622;51.998;10.440;2023-07-24T17:27:14;22.80;95.60
32107;DHT22;18622;51.998;10.440;2023-07-24T17:29:42;22.60;96.40
32107;DHT22;18622;51.998;10.440;2023-07-24T17:32:09;22.50;97.50
32107;DHT22;18622;51.998;10.440;2023-07-24T17:34:38;22.40;97.60
32107;DHT22;18622;51.998;10.440;2023-07-24T17:37:06;22.20;97.90
32107;DHT22;18622;51.998;10.440;2023-07-24T17:39:34;22.00;98.20
32107;DHT22;18622;51.998;10.440;2023-07-24T17:42:02;21.90;98.70
32107;DHT22;18622;51.998;10.440;2023-07-24T17:44:29;21.70;99.40
32107;DHT22;18622;51.998;10.440;2023-07-24T17:46:57;21.60;99.80
32107;DHT22;18622;51.998;10.440;2023-07-24T17:49:25;21.60;99.90
32107;DHT22;18622;51.998;10.440;2023-07-24T17:51:53;21.50;99.90
32107;DHT22;18622;51.998;10.440;2023-07-24T17:54:21;21.40;99.90
32107;DHT22;18622;51.998;10.440;2023-07-24T17:56:48;21.40;99.90
32107;DHT22;18622;51.998;10.440;2023-07-24T17:59:16;21.30;99.90
32107;DHT22;18622;51.998;10.440;2023-07-24T18:01:44;21.30;99.90
32107;DHT22;18622;51.998;10.440;2023-07-24T18:04:12;21.20;99.90
32107;DHT22;18622;51.998;10.440;2023-07-24T18:06:40;21.00;99.90
32107;DHT22;18622;51.998;10.440;2023-07-24T18:09:08;20.80;99.90
32107;DHT22;18622;51.998;10.440;2023-07-24T18:11:35;20.60;99.90
32107;DHT22;18622;51.998;10.440;2023-07-24T18:14:03;20.40;99.90
32107;DHT22;18622;51.998;10.440;2023-07-24T18:16:31;20.30;99.90
32107;DHT22;18622;51.998;10.440;2023-07-24T18:18:59;20.10;99.90
32107;DHT22;18622;51.998;10.440;2023-07-24T18:21:27;20.00;99.90
32107;DHT22;18622;51.998;10.440;2023-07-24T18:23:54;19.80;99.90
32107;DHT22;18622;51.998;10.440;2023-07-24T18:26:23;19.60;99.90
32107;DHT22;18622;51.998;10.440;2023-07-24T18:28:51;19.40;99.90
32107;DHT22;18622;51.998;10.440;2023-07-24T18:31:19;19.30;99.90
32107;DHT22;18622;51.998;10.440;2023-07-24T18:33:47;19.10;99.90
32107;DHT22;18622;51.998;10.440;2023-07-24T18:36:14;19.00;99.90
32107;DHT22;18622;51.998;10.440;2023-07-24T18:38:42;18.90;99.90
32107;DHT22;18622;51.998;10.440;2023-07-24T18:41:10;18.70;99.90
32107;DHT22;18622;51.998;10.440;2023-07-24T18:43:38;18.60;99.90
32107;DHT22;18622;51.998;10.440;2023-07-24T18:46:06;18.50;99.90
32107;DHT22;18622;51.998;10.440;2023-07-24T18:48:33;18.40;99.90
32107;DHT22;18622;51.998;10.440;2023-07-24T18:51:03;18.40;99.90
32107;DHT22;18622;51.998;10.440;2023-07-24T18:53:30;18.30;99.90
32107;DHT22;18622;51.998;10.440;2023-07-24T18:55:58;18.30;99.90